NKS996 KFLL-KCLT
Flight info
| Callsign | NKS996 |
|---|---|
| Flight time | 1h 29m |
| Altitude | 37000 |
| Route | AGERS1 DUCEN Q87 VIYAP CHECR STOCR4 |
| Aircraft | A321/M-SDE3FGHIRWY/LB1 |
Departure
| Time | 2026-05-03 23:13 |
|---|---|
| Airport | Fort Lauderdale Hollywood International Airport (KFLL) |
Arrival
| Time | 2026-05-04 00:42 |
|---|---|
| Airport | Charlotte Douglas International Airport (KCLT) |
| Time | Latitude | Longitude | Altitude | Speed | Heading |
|---|---|---|---|---|---|
| 2026-05-03 21:28 | 26.07056 | -80.14711 | 17 ft | 0 kts | 58° |
| 2026-05-03 22:02 | 26.07053 | -80.14716 | 16 ft | 4 kts | 57° |
| 2026-05-03 22:02 | 26.07038 | -80.14740 | 16 ft | 4 kts | 47° |
| 2026-05-03 22:02 | 26.07018 | -80.14760 | 16 ft | 4 kts | 23° |
| 2026-05-03 22:03 | 26.06997 | -80.14762 | 17 ft | 3 kts | 319° |
| 2026-05-03 22:03 | 26.06992 | -80.14757 | 16 ft | 0 kts | 315° |
| 2026-05-03 22:13 | 26.07020 | -80.14787 | 16 ft | 13 kts | 315° |
| 2026-05-03 22:13 | 26.07092 | -80.14864 | 18 ft | 15 kts | 316° |
| 2026-05-03 22:13 | 26.07159 | -80.14946 | 16 ft | 11 kts | 301° |
| 2026-05-03 22:13 | 26.07137 | -80.15018 | 16 ft | 2 kts | 223° |
| 2026-05-03 22:14 | 26.07135 | -80.15020 | 16 ft | 1 kts | 228° |
| 2026-05-03 22:14 | 26.07161 | -80.15065 | 16 ft | 16 kts | 307° |
| 2026-05-03 22:14 | 26.07256 | -80.15126 | 16 ft | 17 kts | 352° |
| 2026-05-03 22:14 | 26.07348 | -80.15127 | 16 ft | 0 kts | 1° |
| 2026-05-03 22:16 | 26.07358 | -80.15127 | 16 ft | 3 kts | 1° |
| 2026-05-03 22:16 | 26.07376 | -80.15127 | 16 ft | 0 kts | 1° |
| 2026-05-03 22:17 | 26.07378 | -80.15127 | 17 ft | 0 kts | 1° |
| 2026-05-03 22:28 | 26.07382 | -80.15127 | 16 ft | 3 kts | 1° |
| 2026-05-03 22:28 | 26.07421 | -80.15126 | 16 ft | 7 kts | 1° |
| 2026-05-03 22:28 | 26.07473 | -80.15141 | 16 ft | 10 kts | 321° |
| 2026-05-03 22:28 | 26.07490 | -80.15226 | 16 ft | 14 kts | 271° |
| 2026-05-03 22:29 | 26.07489 | -80.15356 | 16 ft | 19 kts | 269° |
| 2026-05-03 22:29 | 26.07490 | -80.15503 | 16 ft | 19 kts | 269° |
| 2026-05-03 22:29 | 26.07492 | -80.15657 | 16 ft | 20 kts | 270° |
| 2026-05-03 22:29 | 26.07493 | -80.15808 | 16 ft | 18 kts | 270° |
| 2026-05-03 22:30 | 26.07493 | -80.15888 | 16 ft | 0 kts | 270° |
| 2026-05-03 22:30 | 26.07493 | -80.15889 | 16 ft | 1 kts | 270° |
| 2026-05-03 22:30 | 26.07493 | -80.15907 | 16 ft | 4 kts | 270° |
| 2026-05-03 22:30 | 26.07493 | -80.15912 | 16 ft | 0 kts | 270° |
| 2026-05-03 22:31 | 26.07493 | -80.15919 | 16 ft | 4 kts | 270° |
| 2026-05-03 22:31 | 26.07493 | -80.15920 | 16 ft | 0 kts | 271° |
| 2026-05-03 22:32 | 26.07493 | -80.15921 | 16 ft | 0 kts | 271° |
| 2026-05-03 22:32 | 26.07493 | -80.15928 | 16 ft | 2 kts | 271° |
| 2026-05-03 22:33 | 26.07494 | -80.15948 | 16 ft | 3 kts | 270° |
| 2026-05-03 22:33 | 26.07494 | -80.15981 | 16 ft | 5 kts | 270° |
| 2026-05-03 22:33 | 26.07494 | -80.15984 | 16 ft | 0 kts | 270° |
| 2026-05-03 22:33 | 26.07494 | -80.15986 | 16 ft | 0 kts | 270° |
| 2026-05-03 22:36 | 26.07494 | -80.15995 | 16 ft | 3 kts | 270° |
| 2026-05-03 22:36 | 26.07494 | -80.16031 | 16 ft | 2 kts | 270° |
| 2026-05-03 22:36 | 26.07494 | -80.16038 | 16 ft | 0 kts | 270° |
| 2026-05-03 22:39 | 26.07494 | -80.16039 | 16 ft | 1 kts | 270° |
| 2026-05-03 22:39 | 26.07495 | -80.16061 | 16 ft | 4 kts | 270° |
| 2026-05-03 22:39 | 26.07495 | -80.16084 | 16 ft | 0 kts | 270° |
| 2026-05-03 22:40 | 26.07495 | -80.16086 | 16 ft | 2 kts | 270° |
| 2026-05-03 22:41 | 26.07495 | -80.16124 | 16 ft | 9 kts | 269° |
| 2026-05-03 22:41 | 26.07495 | -80.16203 | 16 ft | 0 kts | 270° |
| 2026-05-03 22:45 | 26.07495 | -80.16209 | 16 ft | 2 kts | 270° |
| 2026-05-03 22:46 | 26.07495 | -80.16227 | 16 ft | 0 kts | 270° |
| 2026-05-03 22:49 | 26.07495 | -80.16231 | 16 ft | 3 kts | 270° |
| 2026-05-03 22:49 | 26.07495 | -80.16279 | 16 ft | 10 kts | 270° |
| 2026-05-03 22:50 | 26.07495 | -80.16363 | 16 ft | 7 kts | 270° |
| 2026-05-03 22:50 | 26.07495 | -80.16376 | 16 ft | 0 kts | 270° |
| 2026-05-03 22:50 | 26.07495 | -80.16380 | 16 ft | 1 kts | 270° |
| 2026-05-03 22:51 | 26.07495 | -80.16387 | 16 ft | 0 kts | 270° |
| 2026-05-03 22:55 | 26.07495 | -80.16390 | 16 ft | 1 kts | 270° |
| 2026-05-03 22:55 | 26.07495 | -80.16397 | 16 ft | 0 kts | 270° |
| 2026-05-03 22:55 | 26.07496 | -80.16415 | 16 ft | 5 kts | 272° |
| 2026-05-03 22:56 | 26.07496 | -80.16442 | 16 ft | 0 kts | 271° |
| 2026-05-03 22:56 | 26.07496 | -80.16457 | 16 ft | 4 kts | 271° |
| 2026-05-03 22:56 | 26.07497 | -80.16470 | 16 ft | 0 kts | 271° |
| 2026-05-03 22:59 | 26.07497 | -80.16481 | 16 ft | 4 kts | 270° |
| 2026-05-03 22:59 | 26.07497 | -80.16527 | 16 ft | 0 kts | 270° |
| 2026-05-03 23:00 | 26.07497 | -80.16528 | 16 ft | 0 kts | 270° |
| 2026-05-03 23:00 | 26.07497 | -80.16538 | 16 ft | 2 kts | 270° |
| 2026-05-03 23:00 | 26.07497 | -80.16561 | 16 ft | 4 kts | 270° |
| 2026-05-03 23:00 | 26.07497 | -80.16568 | 20 ft | 0 kts | 270° |
| 2026-05-03 23:04 | 26.07497 | -80.16572 | 12 ft | 1 kts | 270° |
| 2026-05-03 23:04 | 26.07498 | -80.16588 | 12 ft | 3 kts | 273° |
| 2026-05-03 23:04 | 26.07505 | -80.16615 | 16 ft | 3 kts | 294° |
| 2026-05-03 23:05 | 26.07506 | -80.16617 | 16 ft | 0 kts | 296° |
| 2026-05-03 23:06 | 26.07511 | -80.16626 | 17 ft | 2 kts | 305° |
| 2026-05-03 23:06 | 26.07527 | -80.16637 | 16 ft | 3 kts | 338° |
| 2026-05-03 23:06 | 26.07546 | -80.16641 | 16 ft | 0 kts | 352° |
| 2026-05-03 23:07 | 26.07548 | -80.16641 | 16 ft | 0 kts | 352° |
| 2026-05-03 23:09 | 26.07551 | -80.16642 | 16 ft | 2 kts | 353° |
| 2026-05-03 23:09 | 26.07582 | -80.16643 | 16 ft | 5 kts | 359° |
| 2026-05-03 23:10 | 26.07586 | -80.16643 | 16 ft | 0 kts | 360° |
| 2026-05-03 23:10 | 26.07587 | -80.16643 | 16 ft | 1 kts | 360° |
| 2026-05-03 23:10 | 26.07629 | -80.16642 | 17 ft | 11 kts | 1° |
| 2026-05-03 23:11 | 26.07692 | -80.16592 | 18 ft | 15 kts | 76° |
| 2026-05-03 23:11 | 26.07695 | -80.16566 | 18 ft | 0 kts | 87° |
| 2026-05-03 23:12 | 26.07695 | -80.16503 | 19 ft | 35 kts | 90° |
| 2026-05-03 23:12 | 26.07691 | -80.15930 | 19 ft | 111 kts | 90° |
| 2026-05-03 23:13 | 26.07691 | -80.14842 | 29 ft | 166 kts | 90° |
| 2026-05-03 23:13 | 26.07692 | -80.13554 | 567 ft | 169 kts | 85° |
| 2026-05-03 23:13 | 26.07747 | -80.12243 | 1295 ft | 170 kts | 84° |
| 2026-05-03 23:13 | 26.07842 | -80.10912 | 1907 ft | 177 kts | 84° |
| 2026-05-03 23:14 | 26.08033 | -80.09493 | 2162 ft | 196 kts | 71° |
| 2026-05-03 23:14 | 26.08780 | -80.08144 | 2325 ft | 217 kts | 46° |
| 2026-05-03 23:14 | 26.09992 | -80.07000 | 2514 ft | 242 kts | 32° |
| 2026-05-03 23:14 | 26.11557 | -80.06123 | 2961 ft | 261 kts | 18° |
| 2026-05-03 23:15 | 26.13303 | -80.05452 | 3656 ft | 269 kts | 17° |
| 2026-05-03 23:15 | 26.15114 | -80.05038 | 4411 ft | 272 kts | 360° |
| 2026-05-03 23:15 | 26.16994 | -80.05212 | 5141 ft | 272 kts | 342° |
| 2026-05-03 23:15 | 26.18817 | -80.05878 | 5907 ft | 274 kts | 336° |
| 2026-05-03 23:16 | 26.20569 | -80.06657 | 6656 ft | 275 kts | 327° |
| 2026-05-03 23:16 | 26.22103 | -80.07942 | 7389 ft | 272 kts | 310° |
| 2026-05-03 23:16 | 26.23193 | -80.09616 | 8147 ft | 271 kts | 294° |
| 2026-05-03 23:16 | 26.23917 | -80.11549 | 8926 ft | 271 kts | 289° |
| 2026-05-03 23:17 | 26.24615 | -80.13508 | 9724 ft | 274 kts | 291° |
| 2026-05-03 23:17 | 26.25616 | -80.15333 | 10441 ft | 281 kts | 307° |
| 2026-05-03 23:17 | 26.27107 | -80.16822 | 10854 ft | 303 kts | 323° |
| 2026-05-03 23:17 | 26.29050 | -80.17972 | 11042 ft | 327 kts | 329° |
| 2026-05-03 23:18 | 26.31119 | -80.19122 | 11545 ft | 336 kts | 329° |
| 2026-05-03 23:18 | 26.33226 | -80.20288 | 12209 ft | 340 kts | 329° |
| 2026-05-03 23:18 | 26.35355 | -80.21474 | 12897 ft | 343 kts | 329° |
| 2026-05-03 23:18 | 26.37581 | -80.22517 | 13530 ft | 352 kts | 338° |
| 2026-05-03 23:19 | 26.40016 | -80.23032 | 14127 ft | 362 kts | 350° |
| 2026-05-03 23:19 | 26.42533 | -80.23278 | 14695 ft | 366 kts | 349° |
| 2026-05-03 23:19 | 26.45087 | -80.23535 | 15286 ft | 369 kts | 349° |
| 2026-05-03 23:19 | 26.47655 | -80.23797 | 15871 ft | 373 kts | 349° |
| 2026-05-03 23:20 | 26.50252 | -80.24067 | 16461 ft | 376 kts | 349° |
| 2026-05-03 23:20 | 26.52872 | -80.24339 | 17027 ft | 380 kts | 348° |
| 2026-05-03 23:20 | 26.55517 | -80.24613 | 17616 ft | 384 kts | 348° |
| 2026-05-03 23:20 | 26.58179 | -80.24930 | 18190 ft | 386 kts | 346° |
| 2026-05-03 23:21 | 26.60853 | -80.25339 | 18694 ft | 389 kts | 345° |
| 2026-05-03 23:21 | 26.63531 | -80.25804 | 19168 ft | 391 kts | 344° |
| 2026-05-03 23:21 | 26.66233 | -80.26293 | 19650 ft | 395 kts | 343° |
| 2026-05-03 23:21 | 26.68956 | -80.26782 | 20130 ft | 398 kts | 343° |
| 2026-05-03 23:22 | 26.74205 | -80.28563 | 21108 ft | 395 kts | 332° |
| 2026-05-03 23:22 | 26.76791 | -80.29649 | 21596 ft | 399 kts | 332° |
| 2026-05-03 23:22 | 26.79399 | -80.30743 | 22096 ft | 402 kts | 331° |
| 2026-05-03 23:23 | 26.82028 | -80.31842 | 22589 ft | 405 kts | 331° |
| 2026-05-03 23:23 | 26.84678 | -80.32949 | 23086 ft | 408 kts | 331° |
| 2026-05-03 23:23 | 26.87321 | -80.34052 | 23548 ft | 412 kts | 331° |
| 2026-05-03 23:23 | 26.90049 | -80.35192 | 23937 ft | 415 kts | 331° |
| 2026-05-03 23:24 | 26.92762 | -80.36326 | 24323 ft | 417 kts | 330° |
| 2026-05-03 23:24 | 26.95455 | -80.37447 | 24709 ft | 420 kts | 331° |
| 2026-05-03 23:24 | 26.98208 | -80.38573 | 25113 ft | 422 kts | 331° |
| 2026-05-03 23:24 | 27.00982 | -80.39691 | 25489 ft | 425 kts | 331° |
| 2026-05-03 23:25 | 27.03775 | -80.40806 | 25879 ft | 427 kts | 331° |
| 2026-05-03 23:25 | 27.06584 | -80.41927 | 26262 ft | 429 kts | 331° |
| 2026-05-03 23:25 | 27.09400 | -80.43057 | 26631 ft | 431 kts | 331° |
| 2026-05-03 23:25 | 27.12216 | -80.44235 | 27010 ft | 432 kts | 330° |
| 2026-05-03 23:26 | 27.15024 | -80.45466 | 27416 ft | 434 kts | 329° |
| 2026-05-03 23:26 | 27.17829 | -80.46729 | 27772 ft | 436 kts | 329° |
| 2026-05-03 23:26 | 27.20649 | -80.48008 | 28131 ft | 438 kts | 329° |
| 2026-05-03 23:26 | 27.23482 | -80.49288 | 28491 ft | 441 kts | 329° |
| 2026-05-03 23:27 | 27.26340 | -80.50568 | 28849 ft | 443 kts | 329° |
| 2026-05-03 23:27 | 27.29214 | -80.51844 | 29206 ft | 446 kts | 329° |
| 2026-05-03 23:27 | 27.32111 | -80.53123 | 29537 ft | 448 kts | 329° |
| 2026-05-03 23:27 | 27.35015 | -80.54403 | 29895 ft | 450 kts | 329° |
| 2026-05-03 23:28 | 27.37948 | -80.55685 | 30210 ft | 453 kts | 330° |
| 2026-05-03 23:28 | 27.40918 | -80.56914 | 30484 ft | 457 kts | 331° |
| 2026-05-03 23:28 | 27.43924 | -80.58101 | 30760 ft | 459 kts | 331° |
| 2026-05-03 23:28 | 27.46957 | -80.59271 | 31038 ft | 462 kts | 331° |
| 2026-05-03 23:29 | 27.50002 | -80.60441 | 31315 ft | 464 kts | 331° |
| 2026-05-03 23:29 | 27.53064 | -80.61628 | 31600 ft | 465 kts | 330° |
| 2026-05-03 23:29 | 27.56120 | -80.62826 | 31922 ft | 466 kts | 330° |
| 2026-05-03 23:29 | 27.59174 | -80.64036 | 32318 ft | 464 kts | 329° |
| 2026-05-03 23:30 | 27.62215 | -80.65249 | 32701 ft | 463 kts | 329° |
| 2026-05-03 23:30 | 27.65252 | -80.66468 | 33076 ft | 462 kts | 329° |
| 2026-05-03 23:30 | 27.68275 | -80.67685 | 33450 ft | 462 kts | 328° |
| 2026-05-03 23:30 | 27.71305 | -80.68902 | 33825 ft | 461 kts | 328° |
| 2026-05-03 23:31 | 27.74322 | -80.70110 | 34172 ft | 461 kts | 328° |
| 2026-05-03 23:31 | 27.77344 | -80.71315 | 34541 ft | 460 kts | 328° |
| 2026-05-03 23:31 | 27.80357 | -80.72513 | 34874 ft | 458 kts | 328° |
| 2026-05-03 23:31 | 27.83361 | -80.73709 | 35204 ft | 457 kts | 328° |
| 2026-05-03 23:32 | 27.86358 | -80.74906 | 35546 ft | 456 kts | 327° |
| 2026-05-03 23:32 | 27.89340 | -80.76100 | 35848 ft | 455 kts | 327° |
| 2026-05-03 23:32 | 27.92320 | -80.77296 | 36159 ft | 454 kts | 327° |
| 2026-05-03 23:32 | 27.95296 | -80.78492 | 36461 ft | 453 kts | 327° |
| 2026-05-03 23:33 | 27.98223 | -80.79670 | 36750 ft | 452 kts | 327° |
| 2026-05-03 23:33 | 28.01182 | -80.80860 | 37002 ft | 452 kts | 327° |
| 2026-05-03 23:33 | 28.07051 | -80.83214 | 37136 ft | 442 kts | 326° |
| 2026-05-03 23:34 | 28.12820 | -80.85537 | 37079 ft | 439 kts | 326° |
| 2026-05-03 23:34 | 28.18569 | -80.87865 | 37080 ft | 439 kts | 326° |
| 2026-05-03 23:35 | 28.24324 | -80.90190 | 37082 ft | 439 kts | 326° |
| 2026-05-03 23:35 | 28.30076 | -80.92503 | 37101 ft | 439 kts | 326° |
| 2026-05-03 23:36 | 28.35834 | -80.94830 | 37103 ft | 439 kts | 326° |
| 2026-05-03 23:36 | 28.41587 | -80.97160 | 37098 ft | 439 kts | 326° |
| 2026-05-03 23:37 | 28.47338 | -80.99492 | 37094 ft | 439 kts | 326° |
| 2026-05-03 23:37 | 28.53084 | -81.01830 | 37097 ft | 439 kts | 326° |
| 2026-05-03 23:38 | 28.57875 | -81.03775 | 37099 ft | 440 kts | 326° |
| 2026-05-03 23:38 | 28.63640 | -81.06115 | 37107 ft | 440 kts | 326° |
| 2026-05-03 23:39 | 28.70340 | -81.08840 | 37092 ft | 439 kts | 325° |
| 2026-05-03 23:39 | 28.75151 | -81.10795 | 37086 ft | 438 kts | 325° |
| 2026-05-03 23:40 | 28.80862 | -81.13127 | 37091 ft | 439 kts | 325° |
| 2026-05-03 23:40 | 28.86618 | -81.15486 | 37104 ft | 440 kts | 325° |
| 2026-05-03 23:41 | 28.92383 | -81.17851 | 37117 ft | 440 kts | 325° |
| 2026-05-03 23:41 | 28.98154 | -81.20219 | 37133 ft | 441 kts | 325° |
| 2026-05-03 23:42 | 29.03929 | -81.22580 | 37125 ft | 441 kts | 325° |
| 2026-05-03 23:42 | 29.09737 | -81.24903 | 37121 ft | 451 kts | 331° |
| 2026-05-03 23:43 | 29.12950 | -81.25357 | 37120 ft | 483 kts | 349° |
| 2026-05-03 23:43 | 29.16347 | -81.25056 | 37123 ft | 491 kts | 352° |
| 2026-05-03 23:43 | 29.23169 | -81.24263 | 37117 ft | 494 kts | 353° |
| 2026-05-03 23:44 | 29.30029 | -81.23430 | 37112 ft | 500 kts | 355° |
| 2026-05-03 23:44 | 29.36941 | -81.21901 | 37131 ft | 507 kts | 0° |
| 2026-05-03 23:45 | 29.43839 | -81.20505 | 37128 ft | 499 kts | 355° |
| 2026-05-03 23:45 | 29.50696 | -81.19733 | 37129 ft | 492 kts | 351° |
| 2026-05-03 23:46 | 29.57528 | -81.19184 | 37117 ft | 491 kts | 352° |
| 2026-05-03 23:46 | 29.64344 | -81.18513 | 37115 ft | 493 kts | 353° |
| 2026-05-03 23:47 | 29.71176 | -81.17723 | 37128 ft | 494 kts | 353° |
| 2026-05-03 23:47 | 29.78021 | -81.16925 | 37141 ft | 495 kts | 353° |
| 2026-05-03 23:48 | 29.84866 | -81.16150 | 37159 ft | 494 kts | 353° |
| 2026-05-03 23:48 | 29.91654 | -81.15392 | 37158 ft | 493 kts | 353° |
| 2026-05-03 23:49 | 29.98485 | -81.14630 | 37162 ft | 493 kts | 353° |
| 2026-05-03 23:49 | 30.05326 | -81.13867 | 37163 ft | 494 kts | 353° |
| 2026-05-03 23:50 | 30.12157 | -81.13095 | 37156 ft | 493 kts | 353° |
| 2026-05-03 23:50 | 30.18943 | -81.12317 | 37121 ft | 489 kts | 353° |
| 2026-05-03 23:51 | 30.25715 | -81.11555 | 37126 ft | 489 kts | 353° |
| 2026-05-03 23:51 | 30.32492 | -81.10806 | 37136 ft | 490 kts | 353° |
| 2026-05-03 23:52 | 30.39289 | -81.10038 | 37144 ft | 491 kts | 353° |
| 2026-05-03 23:52 | 30.46094 | -81.09261 | 37153 ft | 491 kts | 353° |
| 2026-05-03 23:53 | 30.52897 | -81.08487 | 37159 ft | 492 kts | 353° |
| 2026-05-03 23:53 | 30.59711 | -81.07710 | 37162 ft | 492 kts | 353° |
| 2026-05-03 23:54 | 30.66475 | -81.06942 | 37212 ft | 492 kts | 354° |
| 2026-05-03 23:54 | 30.73235 | -81.06167 | 37119 ft | 486 kts | 353° |
| 2026-05-03 23:55 | 30.79968 | -81.05408 | 37130 ft | 487 kts | 353° |
| 2026-05-03 23:55 | 30.86719 | -81.04641 | 37145 ft | 488 kts | 354° |
| 2026-05-03 23:56 | 30.93488 | -81.03861 | 37206 ft | 489 kts | 354° |
| 2026-05-03 23:56 | 31.00231 | -81.03083 | 37149 ft | 486 kts | 354° |
| 2026-05-03 23:57 | 31.06956 | -81.02316 | 37152 ft | 486 kts | 354° |
| 2026-05-03 23:57 | 31.13697 | -81.01547 | 37155 ft | 486 kts | 354° |
| 2026-05-03 23:58 | 31.20432 | -81.00769 | 37162 ft | 487 kts | 354° |
| 2026-05-03 23:58 | 31.27137 | -80.99988 | 37126 ft | 481 kts | 354° |
| 2026-05-03 23:59 | 31.33797 | -80.99211 | 37123 ft | 481 kts | 354° |
| 2026-05-03 23:59 | 31.40459 | -80.98449 | 37133 ft | 482 kts | 354° |
| 2026-05-04 00:00 | 31.47090 | -80.97690 | 37134 ft | 482 kts | 354° |
| 2026-05-04 00:00 | 31.53754 | -80.96909 | 37140 ft | 480 kts | 354° |
| 2026-05-04 00:01 | 31.60401 | -80.96142 | 37141 ft | 480 kts | 354° |
| 2026-05-04 00:01 | 31.67049 | -80.95375 | 37136 ft | 480 kts | 354° |
| 2026-05-04 00:02 | 31.73696 | -80.94599 | 37132 ft | 480 kts | 354° |
| 2026-05-04 00:02 | 31.80326 | -80.93814 | 37106 ft | 476 kts | 355° |
| 2026-05-04 00:03 | 31.86913 | -80.93041 | 37094 ft | 476 kts | 355° |
| 2026-05-04 00:03 | 31.93505 | -80.92280 | 37097 ft | 476 kts | 354° |
| 2026-05-04 00:04 | 32.00104 | -80.91518 | 37102 ft | 477 kts | 355° |
| 2026-05-04 00:04 | 32.06697 | -80.90745 | 37078 ft | 473 kts | 355° |
| 2026-05-04 00:05 | 32.13271 | -80.89971 | 37134 ft | 476 kts | 355° |
| 2026-05-04 00:05 | 32.19826 | -80.89204 | 37139 ft | 477 kts | 355° |
| 2026-05-04 00:06 | 32.26435 | -80.88423 | 37139 ft | 477 kts | 355° |
| 2026-05-04 00:06 | 32.33034 | -80.87646 | 37120 ft | 475 kts | 355° |
| 2026-05-04 00:07 | 32.39597 | -80.86865 | 37112 ft | 474 kts | 355° |
| 2026-05-04 00:07 | 32.46154 | -80.86089 | 37119 ft | 474 kts | 355° |
| 2026-05-04 00:08 | 32.52726 | -80.85312 | 37127 ft | 475 kts | 355° |
| 2026-05-04 00:08 | 32.59299 | -80.84538 | 37154 ft | 475 kts | 355° |
| 2026-05-04 00:09 | 32.65882 | -80.83757 | 37148 ft | 475 kts | 355° |
| 2026-05-04 00:09 | 32.72452 | -80.82294 | 37137 ft | 493 kts | 11° |
| 2026-05-04 00:10 | 32.75574 | -80.80645 | 37137 ft | 504 kts | 21° |
| 2026-05-04 00:10 | 32.78648 | -80.78631 | 37140 ft | 504 kts | 21° |
| 2026-05-04 00:10 | 32.84796 | -80.74626 | 37126 ft | 503 kts | 21° |
| 2026-05-04 00:11 | 32.90929 | -80.70642 | 37123 ft | 501 kts | 21° |
| 2026-05-04 00:11 | 32.97054 | -80.66662 | 37127 ft | 502 kts | 21° |
| 2026-05-04 00:12 | 33.03179 | -80.62667 | 37132 ft | 502 kts | 21° |
| 2026-05-04 00:12 | 33.09309 | -80.58659 | 37118 ft | 503 kts | 21° |
| 2026-05-04 00:13 | 33.15441 | -80.54646 | 37118 ft | 503 kts | 21° |
| 2026-05-04 00:13 | 33.18517 | -80.52637 | 36971 ft | 508 kts | 21° |
| 2026-05-04 00:13 | 33.21639 | -80.50604 | 36405 ft | 513 kts | 21° |
| 2026-05-04 00:14 | 33.24766 | -80.48555 | 35876 ft | 512 kts | 22° |
| 2026-05-04 00:14 | 33.27884 | -80.46504 | 35296 ft | 512 kts | 22° |
| 2026-05-04 00:14 | 33.31007 | -80.44449 | 34716 ft | 512 kts | 22° |
| 2026-05-04 00:14 | 33.34130 | -80.42394 | 34164 ft | 513 kts | 22° |
| 2026-05-04 00:15 | 33.37253 | -80.40334 | 33557 ft | 512 kts | 22° |
| 2026-05-04 00:15 | 33.40318 | -80.38306 | 33018 ft | 509 kts | 23° |
| 2026-05-04 00:15 | 33.43409 | -80.36264 | 32521 ft | 505 kts | 23° |
| 2026-05-04 00:15 | 33.46467 | -80.34247 | 31952 ft | 502 kts | 23° |
| 2026-05-04 00:16 | 33.49510 | -80.32238 | 31615 ft | 495 kts | 23° |
| 2026-05-04 00:16 | 33.52510 | -80.30258 | 31149 ft | 490 kts | 23° |
| 2026-05-04 00:16 | 33.55479 | -80.28297 | 30689 ft | 486 kts | 23° |
| 2026-05-04 00:16 | 33.58423 | -80.26346 | 30279 ft | 479 kts | 23° |
| 2026-05-04 00:17 | 33.61312 | -80.24427 | 29432 ft | 471 kts | 24° |
| 2026-05-04 00:17 | 33.64148 | -80.22542 | 28710 ft | 461 kts | 24° |
| 2026-05-04 00:17 | 33.66907 | -80.20700 | 28334 ft | 443 kts | 24° |
| 2026-05-04 00:17 | 33.69547 | -80.18931 | 28053 ft | 428 kts | 24° |
| 2026-05-04 00:18 | 33.72139 | -80.17202 | 27650 ft | 425 kts | 23° |
| 2026-05-04 00:18 | 33.74719 | -80.15490 | 27247 ft | 422 kts | 23° |
| 2026-05-04 00:18 | 33.77282 | -80.13791 | 26837 ft | 419 kts | 23° |
| 2026-05-04 00:18 | 33.79823 | -80.12108 | 26454 ft | 416 kts | 23° |
| 2026-05-04 00:19 | 33.82352 | -80.10429 | 26093 ft | 413 kts | 23° |
| 2026-05-04 00:19 | 33.84862 | -80.08756 | 25654 ft | 412 kts | 24° |
| 2026-05-04 00:19 | 33.87363 | -80.07087 | 25255 ft | 409 kts | 24° |
| 2026-05-04 00:19 | 33.89844 | -80.05428 | 24846 ft | 407 kts | 24° |
| 2026-05-04 00:20 | 33.92311 | -80.03774 | 24429 ft | 405 kts | 24° |
| 2026-05-04 00:20 | 33.94785 | -80.02168 | 24011 ft | 401 kts | 19° |
| 2026-05-04 00:20 | 33.97375 | -80.01064 | 23575 ft | 391 kts | 8° |
| 2026-05-04 00:20 | 33.99996 | -80.00593 | 23138 ft | 380 kts | 356° |
| 2026-05-04 00:21 | 34.02587 | -80.00707 | 22856 ft | 365 kts | 346° |
| 2026-05-04 00:21 | 34.05030 | -80.01314 | 22444 ft | 354 kts | 337° |
| 2026-05-04 00:21 | 34.07289 | -80.02396 | 22026 ft | 345 kts | 328° |
| 2026-05-04 00:21 | 34.09432 | -80.03671 | 21619 ft | 342 kts | 328° |
| 2026-05-04 00:22 | 34.11557 | -80.04926 | 21258 ft | 338 kts | 328° |
| 2026-05-04 00:22 | 34.13663 | -80.06166 | 20899 ft | 335 kts | 328° |
| 2026-05-04 00:22 | 34.15753 | -80.07393 | 20544 ft | 333 kts | 329° |
| 2026-05-04 00:22 | 34.17833 | -80.08615 | 20184 ft | 331 kts | 328° |
| 2026-05-04 00:23 | 34.19899 | -80.09833 | 19830 ft | 330 kts | 328° |
| 2026-05-04 00:23 | 34.21955 | -80.11049 | 19481 ft | 328 kts | 329° |
| 2026-05-04 00:23 | 34.23993 | -80.12254 | 19133 ft | 326 kts | 329° |
| 2026-05-04 00:23 | 34.26025 | -80.13458 | 18786 ft | 324 kts | 329° |
| 2026-05-04 00:24 | 34.28046 | -80.14656 | 18443 ft | 322 kts | 329° |
| 2026-05-04 00:24 | 34.30054 | -80.15844 | 17999 ft | 321 kts | 329° |
| 2026-05-04 00:24 | 34.32052 | -80.17027 | 17610 ft | 318 kts | 329° |
| 2026-05-04 00:24 | 34.34038 | -80.18202 | 17302 ft | 316 kts | 329° |
| 2026-05-04 00:25 | 34.36004 | -80.19367 | 16949 ft | 313 kts | 329° |
| 2026-05-04 00:25 | 34.37949 | -80.20521 | 16608 ft | 311 kts | 329° |
| 2026-05-04 00:25 | 34.39885 | -80.21671 | 16287 ft | 309 kts | 329° |
| 2026-05-04 00:25 | 34.41809 | -80.22814 | 15959 ft | 307 kts | 330° |
| 2026-05-04 00:26 | 34.43722 | -80.23950 | 15639 ft | 306 kts | 330° |
| 2026-05-04 00:26 | 34.45626 | -80.25078 | 15319 ft | 304 kts | 330° |
| 2026-05-04 00:26 | 34.47519 | -80.26203 | 14998 ft | 302 kts | 330° |
| 2026-05-04 00:26 | 34.49401 | -80.27326 | 14689 ft | 301 kts | 330° |
| 2026-05-04 00:27 | 34.51248 | -80.28429 | 14371 ft | 299 kts | 330° |
| 2026-05-04 00:27 | 34.53111 | -80.29542 | 14055 ft | 298 kts | 330° |
| 2026-05-04 00:27 | 34.54964 | -80.30647 | 13724 ft | 296 kts | 330° |
| 2026-05-04 00:27 | 34.56808 | -80.31745 | 13401 ft | 294 kts | 331° |
| 2026-05-04 00:28 | 34.58644 | -80.32841 | 13072 ft | 293 kts | 331° |
| 2026-05-04 00:28 | 34.60433 | -80.33983 | 12779 ft | 290 kts | 325° |
| 2026-05-04 00:28 | 34.62037 | -80.35447 | 12479 ft | 287 kts | 319° |
| 2026-05-04 00:28 | 34.63593 | -80.36956 | 12177 ft | 285 kts | 320° |
| 2026-05-04 00:29 | 34.65140 | -80.38448 | 11878 ft | 284 kts | 320° |
| 2026-05-04 00:29 | 34.66685 | -80.39934 | 11581 ft | 282 kts | 320° |
| 2026-05-04 00:29 | 34.68208 | -80.41396 | 11280 ft | 277 kts | 320° |
| 2026-05-04 00:29 | 34.69708 | -80.42840 | 10984 ft | 274 kts | 320° |
| 2026-05-04 00:30 | 34.71190 | -80.44284 | 10705 ft | 272 kts | 320° |
| 2026-05-04 00:30 | 34.72658 | -80.45727 | 10419 ft | 271 kts | 320° |
| 2026-05-04 00:30 | 34.74117 | -80.47162 | 10134 ft | 269 kts | 320° |
| 2026-05-04 00:30 | 34.75572 | -80.48590 | 9836 ft | 268 kts | 320° |
| 2026-05-04 00:31 | 34.77019 | -80.50013 | 9539 ft | 267 kts | 320° |
| 2026-05-04 00:31 | 34.78463 | -80.51435 | 9251 ft | 267 kts | 320° |
| 2026-05-04 00:31 | 34.79900 | -80.52854 | 8967 ft | 266 kts | 320° |
| 2026-05-04 00:31 | 34.81336 | -80.54270 | 8686 ft | 266 kts | 320° |
| 2026-05-04 00:32 | 34.82774 | -80.55688 | 8396 ft | 266 kts | 320° |
| 2026-05-04 00:32 | 34.84209 | -80.57104 | 8106 ft | 265 kts | 320° |
| 2026-05-04 00:32 | 34.85621 | -80.58500 | 7818 ft | 263 kts | 320° |
| 2026-05-04 00:32 | 34.87050 | -80.59914 | 7530 ft | 259 kts | 319° |
| 2026-05-04 00:33 | 34.88210 | -80.61508 | 7258 ft | 254 kts | 299° |
| 2026-05-04 00:33 | 34.88676 | -80.65618 | 6725 ft | 250 kts | 259° |
| 2026-05-04 00:33 | 34.88293 | -80.67676 | 6438 ft | 247 kts | 259° |
| 2026-05-04 00:34 | 34.87918 | -80.69709 | 6158 ft | 244 kts | 259° |
| 2026-05-04 00:34 | 34.87557 | -80.71695 | 6014 ft | 235 kts | 259° |
| 2026-05-04 00:34 | 34.87325 | -80.73596 | 6004 ft | 222 kts | 266° |
| 2026-05-04 00:34 | 34.87208 | -80.75463 | 6011 ft | 220 kts | 268° |
| 2026-05-04 00:35 | 34.87162 | -80.76694 | 6004 ft | 220 kts | 273° |
| 2026-05-04 00:35 | 34.87536 | -80.78474 | 6013 ft | 219 kts | 296° |
| 2026-05-04 00:35 | 34.88217 | -80.80136 | 6005 ft | 219 kts | 296° |
| 2026-05-04 00:35 | 34.88902 | -80.81800 | 5999 ft | 220 kts | 296° |
| 2026-05-04 00:36 | 34.89585 | -80.83460 | 6011 ft | 219 kts | 296° |
| 2026-05-04 00:36 | 34.90269 | -80.85124 | 6009 ft | 219 kts | 296° |
| 2026-05-04 00:36 | 34.90948 | -80.86774 | 6010 ft | 217 kts | 296° |
| 2026-05-04 00:36 | 34.91622 | -80.88414 | 6003 ft | 217 kts | 296° |
| 2026-05-04 00:37 | 34.92489 | -80.89911 | 5992 ft | 218 kts | 315° |
| 2026-05-04 00:37 | 34.93755 | -80.90930 | 5832 ft | 221 kts | 336° |
| 2026-05-04 00:37 | 34.95272 | -80.91299 | 5573 ft | 225 kts | 353° |
| 2026-05-04 00:37 | 34.96838 | -80.91427 | 5282 ft | 226 kts | 353° |
| 2026-05-04 00:38 | 34.98405 | -80.91556 | 4982 ft | 226 kts | 353° |
| 2026-05-04 00:38 | 34.99979 | -80.91689 | 4674 ft | 227 kts | 353° |
| 2026-05-04 00:38 | 35.01558 | -80.91824 | 4367 ft | 227 kts | 353° |
| 2026-05-04 00:38 | 35.03133 | -80.91959 | 4061 ft | 228 kts | 353° |
| 2026-05-04 00:39 | 35.04719 | -80.92095 | 3759 ft | 228 kts | 353° |
| 2026-05-04 00:39 | 35.06302 | -80.92230 | 3458 ft | 228 kts | 354° |
| 2026-05-04 00:39 | 35.07865 | -80.92363 | 3189 ft | 220 kts | 353° |
| 2026-05-04 00:39 | 35.09328 | -80.92487 | 2872 ft | 206 kts | 353° |
| 2026-05-04 00:40 | 35.10729 | -80.92607 | 2596 ft | 198 kts | 353° |
| 2026-05-04 00:40 | 35.12097 | -80.92725 | 2347 ft | 197 kts | 353° |
| 2026-05-04 00:40 | 35.13437 | -80.92840 | 2095 ft | 185 kts | 353° |
| 2026-05-04 00:40 | 35.14666 | -80.92943 | 1851 ft | 171 kts | 353° |
| 2026-05-04 00:41 | 35.15832 | -80.93035 | 1577 ft | 164 kts | 354° |
| 2026-05-04 00:41 | 35.16960 | -80.93144 | 1422 ft | 161 kts | 353° |
| 2026-05-04 00:41 | 35.18079 | -80.93240 | 1181 ft | 160 kts | 354° |
| 2026-05-04 00:41 | 35.19187 | -80.93324 | 962 ft | 160 kts | 354° |
| 2026-05-04 00:42 | 35.20292 | -80.93431 | 764 ft | 159 kts | 354° |
| 2026-05-04 00:42 | 35.21285 | -80.93525 | 734 ft | 113 kts | 356° |
| 2026-05-04 00:42 | 35.21774 | -80.93558 | 735 ft | 40 kts | 356° |
| 2026-05-04 00:42 | 35.22022 | -80.93590 | 736 ft | 31 kts | 334° |
| 2026-05-04 00:43 | 35.22161 | -80.93707 | 734 ft | 12 kts | 324° |
| 2026-05-04 00:43 | 35.22167 | -80.93712 | 734 ft | 0 kts | 324° |
| 2026-05-04 00:43 | 35.22174 | -80.93717 | 733 ft | 4 kts | 324° |
| 2026-05-04 00:44 | 35.22188 | -80.93782 | 733 ft | 11 kts | 263° |
| 2026-05-04 00:44 | 35.22178 | -80.93884 | 732 ft | 11 kts | 263° |
| 2026-05-04 00:44 | 35.22158 | -80.93933 | 731 ft | 7 kts | 208° |
| 2026-05-04 00:44 | 35.22128 | -80.93943 | 732 ft | 0 kts | 192° |
| 2026-05-04 00:45 | 35.22124 | -80.93944 | 732 ft | 0 kts | 192° |